Time,TemperatureF,DewpointF,PressureIn,WindDirection,WindDirectionDegrees,WindSpeedMPH,WindSpeedGustMPH,Humidity,HourlyPrecipIn,Conditions,Clouds,dailyrainin,SoftwareType,DateUTC
2013-04-19 00:01:00,54.0,41.0,30.21,SW,230,5.0,-999.0,62,-99.99,,,-99.99,,2013-04-19 07:01:00,
2013-04-19 00:12:00,54.0,41.0,30.21,SW,230,5.0,-999.0,62,-99.99,,,-99.99,,2013-04-19 07:12:00,
2013-04-19 00:21:00,52.0,43.0,30.21,WSW,240,1.0,-999.0,71,-99.99,,,-99.99,,2013-04-19 07:21:00,
2013-04-19 00:32:00,52.0,41.0,30.21,North,0,0.0,-999.0,66,-99.99,,,-99.99,,2013-04-19 07:32:00,
2013-04-19 00:42:00,52.0,41.0,30.21,North,0,0.0,-999.0,66,-99.99,,,-99.99,,2013-04-19 07:42:00,
2013-04-19 00:52:00,52.0,43.0,30.20,South,190,2.0,-999.0,71,-99.99,,,-99.99,,2013-04-19 07:52:00,
2013-04-19 01:02:00,52.0,43.0,30.20,South,190,2.0,-999.0,71,-99.99,,,-99.99,,2013-04-19 08:02:00,
2013-04-19 01:12:00,52.0,43.0,30.20,South,190,2.0,-999.0,71,-99.99,,,-99.99,,2013-04-19 08:12:00,
2013-04-19 01:21:00,54.0,43.0,30.20,North,0,0.0,-999.0,66,-99.99,,,-99.99,,2013-04-19 08:21:00,
2013-04-19 01:32:00,52.0,43.0,30.20,North,0,0.0,-999.0,71,-99.99,,,-99.99,,2013-04-19 08:32:00,
2013-04-19 01:42:00,52.0,43.0,30.20,North,0,0.0,-999.0,71,-99.99,,,-99.99,,2013-04-19 08:42:00,
2013-04-19 01:52:00,48.0,43.0,30.20,North,0,0.0,-999.0,81,-99.99,,,-99.99,,2013-04-19 08:52:00,
2013-04-19 02:01:00,48.0,43.0,30.20,North,0,0.0,-999.0,81,-99.99,,,-99.99,,2013-04-19 09:01:00,
2013-04-19 02:11:00,48.0,43.0,30.20,North,0,0.0,-999.0,81,-99.99,,,-99.99,,2013-04-19 09:11:00,
2013-04-19 02:21:00,50.0,43.0,30.19,North,0,0.0,-999.0,76,-99.99,,,-99.99,,2013-04-19 09:21:00,
2013-04-19 02:32:00,48.0,41.0,30.19,West,270,2.0,-999.0,76,-99.99,,,-99.99,,2013-04-19 09:32:00,
2013-04-19 02:43:00,48.0,41.0,30.19,West,270,2.0,-999.0,76,-99.99,,,-99.99,,2013-04-19 09:43:00,
2013-04-19 02:52:00,48.0,43.0,30.19,North,0,0.0,-999.0,81,-99.99,,,-99.99,,2013-04-19 09:52:00,
2013-04-19 03:02:00,48.0,43.0,30.19,North,0,0.0,-999.0,81,-99.99,,,-99.99,,2013-04-19 10:02:00,
2013-04-19 03:13:00,48.0,43.0,30.19,North,0,0.0,-999.0,81,-99.99,,,-99.99,,2013-04-19 10:13:00,
2013-04-19 03:22:00,48.0,41.0,30.20,North,0,0.0,-999.0,76,-99.99,,,-99.99,,2013-04-19 10:22:00,
2013-04-19 03:33:00,48.0,39.0,30.19,East,100,2.0,-999.0,70,-99.99,,,-99.99,,2013-04-19 10:33:00,
2013-04-19 03:42:00,48.0,39.0,30.19,East,100,2.0,-999.0,70,-99.99,,,-99.99,,2013-04-19 10:42:00,
2013-04-19 03:52:00,48.0,39.0,30.20,North,0,0.0,-999.0,70,-99.99,,,-99.99,,2013-04-19 10:52:00,
2013-04-19 04:02:00,48.0,39.0,30.20,North,0,0.0,-999.0,70,-99.99,,,-99.99,,2013-04-19 11:02:00,
2013-04-19 04:11:00,48.0,39.0,30.20,North,0,0.0,-999.0,70,-99.99,,,-99.99,,2013-04-19 11:11:00,
2013-04-19 04:21:00,46.0,41.0,30.20,West,270,3.0,-999.0,81,-99.99,,,-99.99,,2013-04-19 11:21:00,
2013-04-19 04:32:00,46.0,41.0,30.20,WNW,290,5.0,-999.0,81,-99.99,,,-99.99,,2013-04-19 11:32:00,
2013-04-19 04:42:00,46.0,41.0,30.20,WNW,290,5.0,-999.0,81,-99.99,,,-99.99,,2013-04-19 11:42:00,
2013-04-19 04:52:00,46.0,41.0,30.20,WNW,290,5.0,-999.0,81,-99.99,,,-99.99,,2013-04-19 11:52:00,
2013-04-19 05:02:00,46.0,41.0,30.20,WNW,290,5.0,-999.0,81,-99.99,,,-99.99,,2013-04-19 12:02:00,
2013-04-19 05:12:00,46.0,41.0,30.20,WNW,290,5.0,-999.0,81,-99.99,,,-99.99,,2013-04-19 12:12:00,
2013-04-19 05:22:00,46.0,39.0,30.20,NNW,330,5.0,-999.0,75,-99.99,,,-99.99,,2013-04-19 12:22:00,
2013-04-19 05:32:00,46.0,39.0,30.20,North,0,0.0,-999.0,75,-99.99,,,-99.99,,2013-04-19 12:32:00,
2013-04-19 05:42:00,46.0,39.0,30.20,North,0,0.0,-999.0,75,-99.99,,,-99.99,,2013-04-19 12:42:00,
2013-04-19 05:52:00,46.0,39.0,30.20,North,0,0.0,-999.0,75,-99.99,,,-99.99,,2013-04-19 12:52:00,
2013-04-19 06:01:00,46.0,39.0,30.20,North,0,0.0,-999.0,75,-99.99,,,-99.99,,2013-04-19 13:01:00,
2013-04-19 06:11:00,46.0,39.0,30.20,North,0,0.0,-999.0,75,-99.99,,,-99.99,,2013-04-19 13:11:00,
2013-04-19 06:21:00,45.0,39.0,30.21,North,0,0.0,-999.0,81,-99.99,,,-99.99,,2013-04-19 13:21:00,
2013-04-19 06:32:00,45.0,39.0,30.22,North,0,0.0,-999.0,81,-99.99,,,-99.99,,2013-04-19 13:32:00,
2013-04-19 06:42:00,45.0,39.0,30.22,North,0,0.0,-999.0,81,-99.99,,,-99.99,,2013-04-19 13:42:00,
2013-04-19 06:52:00,43.0,37.0,30.22,North,0,0.0,-999.0,81,-99.99,,,-99.99,,2013-04-19 13:52:00,
2013-04-19 07:01:00,43.0,37.0,30.22,North,0,0.0,-999.0,81,-99.99,,,-99.99,,2013-04-19 14:01:00,
2013-04-19 07:11:00,43.0,37.0,30.22,North,0,0.0,-999.0,81,-99.99,,,-99.99,,2013-04-19 14:11:00,
2013-04-19 07:21:00,46.0,39.0,30.22,North,0,0.0,-999.0,75,-99.99,,,-99.99,,2013-04-19 14:21:00,
2013-04-19 07:31:00,46.0,41.0,30.23,North,0,0.0,-999.0,81,-99.99,,,-99.99,,2013-04-19 14:31:00,
2013-04-19 07:43:00,46.0,41.0,30.23,North,0,0.0,-999.0,81,-99.99,,,-99.99,,2013-04-19 14:43:00,
2013-04-19 07:52:00,48.0,43.0,30.23,North,0,0.0,-999.0,81,-99.99,,,-99.99,,2013-04-19 14:52:00,
2013-04-19 08:01:00,48.0,43.0,30.23,North,0,0.0,-999.0,81,-99.99,,,-99.99,,2013-04-19 15:01:00,
2013-04-19 08:11:00,48.0,43.0,30.23,North,0,0.0,-999.0,81,-99.99,,,-99.99,,2013-04-19 15:11:00,
2013-04-19 08:21:00,52.0,43.0,30.24,North,0,0.0,-999.0,71,-99.99,,,-99.99,,2013-04-19 15:21:00,
2013-04-19 08:33:00,52.0,43.0,30.24,North,0,0.0,-999.0,71,-99.99,,,-99.99,,2013-04-19 15:33:00,
2013-04-19 08:43:00,52.0,43.0,30.24,North,0,0.0,-999.0,71,-99.99,,,-99.99,,2013-04-19 15:43:00,
2013-04-19 08:52:00,54.0,43.0,30.24,North,0,0.0,-999.0,66,-99.99,,,-99.99,,2013-04-19 15:52:00,
2013-04-19 09:03:00,54.0,43.0,30.24,North,0,0.0,-999.0,66,-99.99,,,-99.99,,2013-04-19 16:03:00,
2013-04-19 09:12:00,54.0,43.0,30.24,North,0,0.0,-999.0,66,-99.99,,,-99.99,,2013-04-19 16:12:00,
2013-04-19 09:23:00,57.0,45.0,30.25,North,0,0.0,-999.0,62,-99.99,,,-99.99,,2013-04-19 16:23:00,
2013-04-19 09:32:00,61.0,45.0,30.25,NNW,330,1.0,-999.0,55,-99.99,,,-99.99,,2013-04-19 16:32:00,
2013-04-19 09:42:00,61.0,45.0,30.25,NNW,330,1.0,-999.0,55,-99.99,,,-99.99,,2013-04-19 16:42:00,
2013-04-19 09:52:00,61.0,45.0,30.25,NNW,330,5.0,-999.0,55,-99.99,,,-99.99,,2013-04-19 16:52:00,
2013-04-19 10:02:00,61.0,45.0,30.25,NNW,330,5.0,-999.0,55,-99.99,,,-99.99,,2013-04-19 17:02:00,
2013-04-19 10:11:00,61.0,45.0,30.25,NNW,330,5.0,-999.0,55,-99.99,,,-99.99,,2013-04-19 17:11:00,
2013-04-19 10:21:00,64.0,46.0,30.25,North,10,3.0,-999.0,51,-99.99,,,-99.99,,2013-04-19 17:21:00,
2013-04-19 10:32:00,64.0,46.0,30.25,WNW,290,2.0,-999.0,51,-99.99,,,-99.99,,2013-04-19 17:32:00,
2013-04-19 10:43:00,64.0,46.0,30.25,WNW,290,2.0,-999.0,51,-99.99,,,-99.99,,2013-04-19 17:43:00,
2013-04-19 10:52:00,66.0,46.0,30.25,North,0,5.0,-999.0,48,-99.99,,,-99.99,,2013-04-19 17:52:00,
2013-04-19 11:01:00,66.0,46.0,30.25,North,0,5.0,-999.0,48,-99.99,,,-99.99,,2013-04-19 18:01:00,
2013-04-19 11:13:00,66.0,46.0,30.25,North,0,5.0,-999.0,48,-99.99,,,-99.99,,2013-04-19 18:13:00,
2013-04-19 11:22:00,70.0,45.0,30.24,ENE,60,2.0,-999.0,40,-99.99,,,-99.99,,2013-04-19 18:22:00,
2013-04-19 11:32:00,72.0,45.0,30.24,North,10,2.0,-999.0,37,-99.99,,,-99.99,,2013-04-19 18:32:00,
2013-04-19 11:43:00,72.0,45.0,30.24,North,10,2.0,-999.0,37,-99.99,,,-99.99,,2013-04-19 18:43:00,
2013-04-19 11:52:00,70.0,45.0,30.24,East,90,5.0,-999.0,40,-99.99,,,-99.99,,2013-04-19 18:52:00,
2013-04-19 12:01:00,70.0,45.0,30.24,East,90,5.0,-999.0,40,-99.99,,,-99.99,,2013-04-19 19:01:00,
2013-04-19 12:11:00,70.0,45.0,30.24,East,90,5.0,-999.0,40,-99.99,,,-99.99,,2013-04-19 19:11:00,
2013-04-19 12:21:00,73.0,45.0,30.23,NW,310,3.0,-999.0,35,-99.99,,,-99.99,,2013-04-19 19:21:00,
2013-04-19 12:31:00,73.0,46.0,30.23,WNW,300,3.0,-999.0,38,-99.99,,,-99.99,,2013-04-19 19:31:00,
2013-04-19 12:42:00,73.0,46.0,30.23,WNW,300,3.0,-999.0,38,-99.99,,,-99.99,,2013-04-19 19:42:00,
2013-04-19 12:52:00,75.0,46.0,30.22,North,0,0.0,-999.0,35,-99.99,,,-99.99,,2013-04-19 19:52:00,
2013-04-19 13:01:00,75.0,46.0,30.22,North,0,0.0,-999.0,35,-99.99,,,-99.99,,2013-04-19 20:01:00,
2013-04-19 13:11:00,75.0,46.0,30.22,North,0,0.0,-999.0,35,-99.99,,,-99.99,,2013-04-19 20:11:00,
2013-04-19 13:21:00,75.0,46.0,30.20,ENE,70,3.0,-999.0,35,-99.99,,,-99.99,,2013-04-19 20:21:00,
2013-04-19 13:31:00,75.0,45.0,30.20,North,0,0.0,-999.0,33,-99.99,,,-99.99,,2013-04-19 20:31:00,
2013-04-19 13:42:00,75.0,45.0,30.20,North,0,0.0,-999.0,33,-99.99,,,-99.99,,2013-04-19 20:42:00,
2013-04-19 13:52:00,77.0,46.0,30.19,North,0,0.0,-999.0,33,-99.99,,,-99.99,,2013-04-19 20:52:00,
2013-04-19 14:01:00,77.0,46.0,30.19,North,0,0.0,-999.0,33,-99.99,,,-99.99,,2013-04-19 21:01:00,
2013-04-19 14:11:00,77.0,46.0,30.19,North,0,0.0,-999.0,33,-99.99,,,-99.99,,2013-04-19 21:11:00,
2013-04-19 14:21:00,79.0,45.0,30.17,NNW,340,1.0,-999.0,29,-99.99,,,-99.99,,2013-04-19 21:21:00,
2013-04-19 14:32:00,79.0,45.0,30.16,West,270,5.0,-999.0,29,-99.99,,,-99.99,,2013-04-19 21:32:00,
2013-04-19 14:43:00,79.0,45.0,30.16,West,270,5.0,-999.0,29,-99.99,,,-99.99,,2013-04-19 21:43:00,
2013-04-19 14:52:00,79.0,45.0,30.15,North,0,0.0,-999.0,29,-99.99,,,-99.99,,2013-04-19 21:52:00,
2013-04-19 15:02:00,79.0,45.0,30.15,North,0,0.0,-999.0,29,-99.99,,,-99.99,,2013-04-19 22:02:00,
2013-04-19 15:12:00,79.0,45.0,30.15,North,0,0.0,-999.0,29,-99.99,,,-99.99,,2013-04-19 22:12:00,
2013-04-19 15:22:00,81.0,45.0,30.14,East,80,2.0,-999.0,28,-99.99,,,-99.99,,2013-04-19 22:22:00,
2013-04-19 15:33:00,81.0,45.0,30.13,North,0,0.0,-999.0,28,-99.99,,,-99.99,,2013-04-19 22:33:00,
2013-04-19 15:42:00,81.0,45.0,30.13,North,0,0.0,-999.0,28,-99.99,,,-99.99,,2013-04-19 22:42:00,
2013-04-19 15:52:00,82.0,46.0,30.12,North,0,0.0,-999.0,28,-99.99,,,-99.99,,2013-04-19 22:52:00,
2013-04-19 16:02:00,82.0,46.0,30.12,North,0,0.0,-999.0,28,-99.99,,,-99.99,,2013-04-19 23:02:00,
2013-04-19 16:11:00,82.0,46.0,30.12,North,0,0.0,-999.0,28,-99.99,,,-99.99,,2013-04-19 23:11:00,
2013-04-19 16:21:00,82.0,45.0,30.11,SSE,160,3.0,-999.0,26,-99.99,,,-99.99,,2013-04-19 23:21:00,
2013-04-19 16:31:00,82.0,45.0,30.10,West,260,1.0,-999.0,26,-99.99,,,-99.99,,2013-04-19 23:31:00,
2013-04-19 16:42:00,82.0,45.0,30.10,West,260,1.0,-999.0,26,-99.99,,,-99.99,,2013-04-19 23:42:00,
2013-04-19 16:52:00,82.0,45.0,30.10,West,260,1.0,-999.0,26,-99.99,,,-99.99,,2013-04-19 23:52:00,
2013-04-19 17:01:00,82.0,45.0,30.10,West,260,1.0,-999.0,26,-99.99,,,-99.99,,2013-04-20 00:01:00,
2013-04-19 17:11:00,82.0,45.0,30.10,West,260,1.0,-999.0,26,-99.99,,,-99.99,,2013-04-20 00:11:00,
2013-04-19 17:21:00,82.0,48.0,30.08,SSW,200,2.0,-999.0,30,-99.99,,,-99.99,,2013-04-20 00:21:00,
2013-04-19 17:32:00,82.0,48.0,30.08,SSE,160,6.0,-999.0,30,-99.99,,,-99.99,,2013-04-20 00:32:00,
2013-04-19 17:42:00,82.0,48.0,30.08,SSE,160,6.0,-999.0,30,-99.99,,,-99.99,,2013-04-20 00:42:00,
2013-04-19 17:52:00,82.0,48.0,30.08,SSE,150,6.0,-999.0,30,-99.99,,,-99.99,,2013-04-20 00:52:00,
2013-04-19 18:01:00,82.0,48.0,30.08,SSE,150,6.0,-999.0,30,-99.99,,,-99.99,,2013-04-20 01:01:00,
2013-04-19 18:11:00,82.0,48.0,30.08,SSE,150,6.0,-999.0,30,-99.99,,,-99.99,,2013-04-20 01:11:00,
2013-04-19 18:21:00,81.0,48.0,30.07,East,90,3.0,-999.0,32,-99.99,,,-99.99,,2013-04-20 01:21:00,
2013-04-19 18:31:00,81.0,48.0,30.07,ESE,120,6.0,-999.0,32,-99.99,,,-99.99,,2013-04-20 01:31:00,
2013-04-19 18:42:00,81.0,48.0,30.07,ESE,120,6.0,-999.0,32,-99.99,,,-99.99,,2013-04-20 01:42:00,
2013-04-19 18:52:00,81.0,48.0,30.07,ESE,120,6.0,-999.0,32,-99.99,,,-99.99,,2013-04-20 01:52:00,
2013-04-19 19:01:00,81.0,48.0,30.07,ESE,120,6.0,-999.0,32,-99.99,,,-99.99,,2013-04-20 02:01:00,
2013-04-19 19:11:00,81.0,48.0,30.07,ESE,120,6.0,-999.0,32,-99.99,,,-99.99,,2013-04-20 02:11:00,
2013-04-19 19:21:00,79.0,48.0,30.06,SE,130,7.0,-999.0,34,-99.99,,,-99.99,,2013-04-20 02:21:00,
2013-04-19 19:32:00,79.0,52.0,30.06,North,0,0.0,-999.0,39,-99.99,,,-99.99,,2013-04-20 02:32:00,
2013-04-19 19:42:00,79.0,52.0,30.06,North,0,0.0,-999.0,39,-99.99,,,-99.99,,2013-04-20 02:42:00,
2013-04-19 19:52:00,75.0,52.0,30.05,ESE,120,6.0,-999.0,43,-99.99,,,-99.99,,2013-04-20 02:52:00,
2013-04-19 20:01:00,75.0,52.0,30.05,ESE,120,6.0,-999.0,43,-99.99,,,-99.99,,2013-04-20 03:01:00,
2013-04-19 20:11:00,75.0,52.0,30.05,ESE,120,6.0,-999.0,43,-99.99,,,-99.99,,2013-04-20 03:11:00,
2013-04-19 20:21:00,73.0,52.0,30.05,SE,140,6.0,-999.0,46,-99.99,,,-99.99,,2013-04-20 03:21:00,
2013-04-19 20:33:00,73.0,52.0,30.05,SE,140,3.0,-999.0,46,-99.99,,,-99.99,,2013-04-20 03:33:00,
2013-04-19 20:43:00,73.0,52.0,30.05,SE,140,3.0,-999.0,46,-99.99,,,-99.99,,2013-04-20 03:43:00,
2013-04-19 20:53:00,72.0,52.0,30.05,North,0,0.0,-999.0,49,-99.99,,,-99.99,,2013-04-20 03:53:00,
2013-04-19 21:02:00,72.0,52.0,30.05,North,0,0.0,-999.0,49,-99.99,,,-99.99,,2013-04-20 04:02:00,
2013-04-19 21:12:00,72.0,52.0,30.05,North,0,0.0,-999.0,49,-99.99,,,-99.99,,2013-04-20 04:12:00,
2013-04-19 21:22:00,68.0,54.0,30.06,North,350,6.0,-999.0,59,-99.99,,,-99.99,,2013-04-20 04:22:00,
2013-04-19 21:32:00,68.0,52.0,30.07,North,0,0.0,-999.0,56,-99.99,,,-99.99,,2013-04-20 04:32:00,
2013-04-19 21:42:00,68.0,52.0,30.07,North,0,0.0,-999.0,56,-99.99,,,-99.99,,2013-04-20 04:42:00,
2013-04-19 21:52:00,68.0,52.0,30.07,North,0,0.0,-999.0,56,-99.99,,,-99.99,,2013-04-20 04:52:00,
2013-04-19 22:01:00,68.0,52.0,30.07,North,0,0.0,-999.0,56,-99.99,,,-99.99,,2013-04-20 05:01:00,
2013-04-19 22:12:00,68.0,52.0,30.07,North,0,0.0,-999.0,56,-99.99,,,-99.99,,2013-04-20 05:12:00,
2013-04-19 22:21:00,68.0,48.0,30.07,NW,320,6.0,-999.0,49,-99.99,,,-99.99,,2013-04-20 05:21:00,
2013-04-19 22:32:00,66.0,48.0,30.07,NW,310,9.0,-999.0,52,-99.99,,,-99.99,,2013-04-20 05:32:00,
2013-04-19 22:43:00,66.0,48.0,30.07,NW,310,9.0,-999.0,52,-99.99,,,-99.99,,2013-04-20 05:43:00,
2013-04-19 22:52:00,66.0,48.0,30.07,NW,310,9.0,-999.0,52,-99.99,,,-99.99,,2013-04-20 05:52:00,
2013-04-19 23:01:00,66.0,48.0,30.07,NW,310,9.0,-999.0,52,-99.99,,,-99.99,,2013-04-20 06:01:00,
2013-04-19 23:12:00,66.0,48.0,30.07,NW,310,9.0,-999.0,52,-99.99,,,-99.99,,2013-04-20 06:12:00,
2013-04-19 23:21:00,61.0,48.0,30.07,North,0,0.0,-999.0,63,-99.99,,,-99.99,,2013-04-20 06:21:00,
2013-04-19 23:32:00,63.0,46.0,30.08,NW,320,6.0,-999.0,55,-99.99,,,-99.99,,2013-04-20 06:32:00,
2013-04-19 23:42:00,63.0,46.0,30.08,NW,320,6.0,-999.0,55,-99.99,,,-99.99,,2013-04-20 06:42:00,
2013-04-19 23:52:00,63.0,46.0,30.08,NW,320,6.0,-999.0,55,-99.99,,,-99.99,,2013-04-20 06:52:00,